Observations for EXETER AIRPORT, United Kingdom (EGTE)

EGTE 130850Z 12019KT 9999 SCT025 06/02 Q1011
EGTE 130820Z 13019G31KT 9999 SCT025 06/01 Q1010 
EGTE 130750Z 12022KT 9999 SCT025 06/02 Q1010
EGTE 130720Z 12018G30KT 9999 SCT028 07/01 Q1010 
EGTE 130650Z 12019G29KT 9999 FEW025 SCT030 06/01 Q1010  
EGTE 130620Z 13020G33KT 9999 SCT030 07/01 Q1010 
EGTE 130220Z 13022KT 9999 FEW030 06/M00 Q1010   
EGTE 130150Z 13021G31KT 9999 FEW030 07/01 Q1010 
EGTE 130120Z 13021G31KT 9999 FEW030 07/02 Q1010 
EGTE 130050Z 13018G28KT 9999 FEW030 06/01 Q1011 
EGTE 122350Z 13019G30KT 9999 FEW020 BKN042 07/02 Q1011  
EGTE 122320Z 13019KT 9999 FEW020 BKN042 06/01 Q1012 
EGTE 122250Z 13018G30KT 110V170 9999 FEW020 BKN042 06/01 Q1012  
EGTE 122220Z 14019KT 9999 SCT025 07/02 Q1013
EGTE 122150Z 14017KT 9999 BKN034 07/03 Q1013
EGTE 122120Z 13017KT 9999 BKN030 08/04 Q1013
EGTE 122050Z 13018KT 110V170 9999 BKN030 08/04 Q1014
EGTE 122020Z 13017KT 9999 BKN030 08/04 Q1014
EGTE 121950Z 13016KT 9999 BKN030 08/04 Q1014
EGTE 121920Z 13016KT 9999 BKN030 07/03 Q1014
EGTE 121850Z 13018KT 9999 BKN022 07/04 Q1014
EGTE 121820Z 13015KT 9999 BKN022 08/04 Q1014
EGTE 121750Z 13015KT 9999 BKN022 09/06 Q1015
EGTE 121720Z 14011KT 9999 BKN018 08/05 Q1015
EGTE 121650Z 14011KT 9999 BKN018 07/04 Q1016
EGTE 121620Z 13013KT 9999 BKN018 08/05 Q1016
EGTE 121550Z 13016KT 9999 FEW015 BKN040 08/05 Q1016 
EGTE 121520Z 12017KT 9999 FEW015 BKN040 08/05 Q1016 
EGTE 121450Z 12015KT 9999 FEW008 BKN022 08/05 Q1016 
EGTE 121420Z 12015G25KT 9999 BKN020 09/06 Q1016 
EGTE 121350Z 11018KT 9999 BKN018 08/06 Q1016
EGTE 121320Z 12018KT 9999 BKN018 08/06 Q1017
EGTE 121250Z 12017KT 9999 FEW015 BKN038 09/06 Q1017 
EGTE 121220Z 11017KT 9999 FEW012 SCT025 08/05 Q1017 
EGTE 121150Z 12014KT 9999 FEW012 BKN025 09/07 Q1018 
EGTE 121120Z 13014KT 9999 BKN022 OVC035 09/06 Q1018 
EGTE 121050Z 14013KT 9999 SCT012 BKN035 09/07 Q1018 
EGTE 121020Z 14014KT 9999 FEW005 BKN015 09/08 Q1018 
EGTE 120950Z 14010KT 9999 5000E SCT005 BKN010 10/08 Q1018   
EGTE 120920Z 15010KT 9999 SCT010 BKN020 09/08 Q1018 
EGTE 120850Z 14010KT 9000 SCT015 BKN028 09/08 Q1018 
EGTE 120820Z 14009KT 6000 SCT010 BKN028 09/08 Q1018